sensor_id;sensor_type;location;lat;lon;timestamp;pressure;altitude;pressure_sealevel;temperature;humidity
14253;BME280;7210;51.502;10.722;2022-11-20T00:01:52;99384.53;;;-5.84;100.00
14253;BME280;7210;51.502;10.722;2022-11-20T00:04:21;99382.81;;;-5.84;100.00
14253;BME280;7210;51.502;10.722;2022-11-20T00:06:48;99384.66;;;-5.86;100.00
14253;BME280;7210;51.502;10.722;2022-11-20T00:09:16;99382.38;;;-5.89;100.00
14253;BME280;7210;51.502;10.722;2022-11-20T00:11:44;99383.53;;;-5.93;100.00
14253;BME280;7210;51.502;10.722;2022-11-20T00:14:11;99380.06;;;-5.92;100.00
14253;BME280;7210;51.502;10.722;2022-11-20T00:16:38;99381.41;;;-5.88;100.00
14253;BME280;7210;51.502;10.722;2022-11-20T00:19:16;99373.25;;;-5.93;100.00
14253;BME280;7210;51.502;10.722;2022-11-20T00:21:45;99355.09;;;-6.01;100.00
14253;BME280;7210;51.502;10.722;2022-11-20T00:24:34;99355.97;;;-5.91;100.00
14253;BME280;7210;51.502;10.722;2022-11-20T00:27:01;99352.16;;;-5.87;100.00
14253;BME280;7210;51.502;10.722;2022-11-20T00:29:46;99352.44;;;-5.90;100.00
14253;BME280;7210;51.502;10.722;2022-11-20T00:32:22;99349.88;;;-5.90;100.00
14253;BME280;7210;51.502;10.722;2022-11-20T00:34:50;99354.34;;;-5.92;100.00
14253;BME280;7210;51.502;10.722;2022-11-20T00:37:18;99348.63;;;-5.95;100.00
14253;BME280;7210;51.502;10.722;2022-11-20T00:40:11;99350.66;;;-5.99;100.00
14253;BME280;7210;51.502;10.722;2022-11-20T00:42:40;99345.75;;;-6.02;100.00
14253;BME280;7210;51.502;10.722;2022-11-20T00:45:08;99347.75;;;-6.05;100.00
14253;BME280;7210;51.502;10.722;2022-11-20T00:47:35;99322.53;;;-6.21;100.00
14253;BME280;7210;51.502;10.722;2022-11-20T00:50:04;99337.19;;;-6.12;100.00
14253;BME280;7210;51.502;10.722;2022-11-20T00:52:32;99336.34;;;-6.12;100.00
14253;BME280;7210;51.502;10.722;2022-11-20T00:55:10;99337.28;;;-6.13;100.00
14253;BME280;7210;51.502;10.722;2022-11-20T00:57:40;99341.88;;;-6.17;100.00
14253;BME280;7210;51.502;10.722;2022-11-20T01:00:09;99341.19;;;-6.19;100.00
14253;BME280;7210;51.502;10.722;2022-11-20T01:02:36;99351.59;;;-6.20;100.00
14253;BME280;7210;51.502;10.722;2022-11-20T01:05:04;99348.13;;;-6.19;100.00
14253;BME280;7210;51.502;10.722;2022-11-20T01:07:33;99337.94;;;-6.21;100.00
14253;BME280;7210;51.502;10.722;2022-11-20T01:10:01;99333.03;;;-6.24;100.00
14253;BME280;7210;51.502;10.722;2022-11-20T01:12:28;99329.25;;;-6.29;100.00
14253;BME280;7210;51.502;10.722;2022-11-20T01:14:58;99327.38;;;-6.27;100.00
14253;BME280;7210;51.502;10.722;2022-11-20T01:17:26;99318.78;;;-6.37;100.00
14253;BME280;7210;51.502;10.722;2022-11-20T01:19:53;99325.16;;;-6.32;100.00
14253;BME280;7210;51.502;10.722;2022-11-20T01:22:28;99326.09;;;-6.33;100.00
14253;BME280;7210;51.502;10.722;2022-11-20T01:25:07;99318.94;;;-6.39;100.00
14253;BME280;7210;51.502;10.722;2022-11-20T01:27:34;99327.50;;;-6.29;100.00
14253;BME280;7210;51.502;10.722;2022-11-20T01:30:01;99331.41;;;-6.25;100.00
14253;BME280;7210;51.502;10.722;2022-11-20T01:32:34;99306.75;;;-6.37;100.00
14253;BME280;7210;51.502;10.722;2022-11-20T01:35:05;99326.03;;;-6.22;100.00
14253;BME280;7210;51.502;10.722;2022-11-20T01:37:34;99320.19;;;-6.24;100.00
14253;BME280;7210;51.502;10.722;2022-11-20T01:40:02;99315.31;;;-6.27;100.00
14253;BME280;7210;51.502;10.722;2022-11-20T01:42:36;99302.69;;;-6.39;100.00
14253;BME280;7210;51.502;10.722;2022-11-20T01:46:14;99306.25;;;-6.31;100.00
14253;BME280;7210;51.502;10.722;2022-11-20T01:49:16;99293.22;;;-6.39;100.00
14253;BME280;7210;51.502;10.722;2022-11-20T01:51:52;99297.16;;;-6.35;100.00
14253;BME280;7210;51.502;10.722;2022-11-20T01:54:32;99287.81;;;-6.36;100.00
14253;BME280;7210;51.502;10.722;2022-11-20T01:57:04;99286.44;;;-6.40;100.00
14253;BME280;7210;51.502;10.722;2022-11-20T01:59:49;99288.59;;;-6.45;100.00
14253;BME280;7210;51.502;10.722;2022-11-20T02:02:19;99290.72;;;-6.50;100.00
14253;BME280;7210;51.502;10.722;2022-11-20T02:05:14;99289.22;;;-6.52;100.00
14253;BME280;7210;51.502;10.722;2022-11-20T02:07:44;99265.34;;;-6.64;100.00
14253;BME280;7210;51.502;10.722;2022-11-20T02:10:15;99257.63;;;-6.64;100.00
14253;BME280;7210;51.502;10.722;2022-11-20T02:12:43;99265.09;;;-6.61;100.00
14253;BME280;7210;51.502;10.722;2022-11-20T02:15:30;99261.16;;;-6.65;100.00
14253;BME280;7210;51.502;10.722;2022-11-20T02:17:59;99259.53;;;-6.66;100.00
14253;BME280;7210;51.502;10.722;2022-11-20T02:20:27;99251.94;;;-6.67;100.00
14253;BME280;7210;51.502;10.722;2022-11-20T02:23:25;99238.53;;;-6.71;100.00
14253;BME280;7210;51.502;10.722;2022-11-20T02:25:57;99243.16;;;-6.65;100.00
14253;BME280;7210;51.502;10.722;2022-11-20T02:28:25;99243.16;;;-6.65;100.00
14253;BME280;7210;51.502;10.722;2022-11-20T02:31:10;99233.84;;;-6.66;100.00
14253;BME280;7210;51.502;10.722;2022-11-20T02:33:38;99235.72;;;-6.68;100.00
14253;BME280;7210;51.502;10.722;2022-11-20T02:36:11;99234.09;;;-6.69;100.00
14253;BME280;7210;51.502;10.722;2022-11-20T02:38:47;99215.38;;;-6.80;100.00
14253;BME280;7210;51.502;10.722;2022-11-20T02:41:18;99248.13;;;-6.73;100.00
14253;BME280;7210;51.502;10.722;2022-11-20T02:43:46;99242.44;;;-6.76;100.00
14253;BME280;7210;51.502;10.722;2022-11-20T02:46:14;99242.19;;;-6.73;100.00
14253;BME280;7210;51.502;10.722;2022-11-20T02:48:58;99232.97;;;-6.76;100.00
14253;BME280;7210;51.502;10.722;2022-11-20T02:51:26;99250.03;;;-6.75;100.00
14253;BME280;7210;51.502;10.722;2022-11-20T02:54:04;99245.81;;;-6.76;100.00
14253;BME280;7210;51.502;10.722;2022-11-20T02:56:48;99240.94;;;-6.79;100.00
14253;BME280;7210;51.502;10.722;2022-11-20T02:59:15;99248.63;;;-6.79;100.00
14253;BME280;7210;51.502;10.722;2022-11-20T03:02:10;99236.16;;;-6.83;100.00
14253;BME280;7210;51.502;10.722;2022-11-20T03:04:52;99208.88;;;-7.05;100.00
14253;BME280;7210;51.502;10.722;2022-11-20T03:07:19;99251.91;;;-6.77;100.00
14253;BME280;7210;51.502;10.722;2022-11-20T03:09:58;99224.16;;;-6.83;100.00
14253;BME280;7210;51.502;10.722;2022-11-20T03:12:27;99229.19;;;-6.72;100.00
14253;BME280;7210;51.502;10.722;2022-11-20T03:14:54;99231.09;;;-6.74;100.00
14253;BME280;7210;51.502;10.722;2022-11-20T03:17:21;99217.56;;;-6.76;100.00
14253;BME280;7210;51.502;10.722;2022-11-20T03:19:58;99217.81;;;-6.79;100.00
14253;BME280;7210;51.502;10.722;2022-11-20T03:22:28;99215.94;;;-6.77;100.00
14253;BME280;7210;51.502;10.722;2022-11-20T03:25:46;99215.38;;;-6.80;100.00
14253;BME280;7210;51.502;10.722;2022-11-20T03:28:14;99212.25;;;-6.84;100.00
14253;BME280;7210;51.502;10.722;2022-11-20T03:30:52;99202.38;;;-6.88;100.00
14253;BME280;7210;51.502;10.722;2022-11-20T03:33:20;99209.63;;;-6.93;100.00
14253;BME280;7210;51.502;10.722;2022-11-20T03:36:17;99201.63;;;-7.00;100.00
14253;BME280;7210;51.502;10.722;2022-11-20T03:38:47;99207.94;;;-7.04;100.00
14253;BME280;7210;51.502;10.722;2022-11-20T03:41:19;99210.78;;;-7.07;100.00
14253;BME280;7210;51.502;10.722;2022-11-20T03:43:49;99209.00;;;-7.06;100.00
14253;BME280;7210;51.502;10.722;2022-11-20T03:46:23;99205.75;;;-7.08;100.00
14253;BME280;7210;51.502;10.722;2022-11-20T03:48:51;99199.13;;;-7.11;100.00
14253;BME280;7210;51.502;10.722;2022-11-20T03:51:35;99197.38;;;-7.10;100.00
14253;BME280;7210;51.502;10.722;2022-11-20T03:54:06;99200.06;;;-7.12;100.00
14253;BME280;7210;51.502;10.722;2022-11-20T03:56:35;99187.72;;;-7.18;100.00
14253;BME280;7210;51.502;10.722;2022-11-20T03:59:18;99194.94;;;-7.12;100.00
14253;BME280;7210;51.502;10.722;2022-11-20T04:01:52;99191.41;;;-7.11;100.00
14253;BME280;7210;51.502;10.722;2022-11-20T04:04:40;99198.16;;;-7.10;100.00
14253;BME280;7210;51.502;10.722;2022-11-20T04:07:34;99183.53;;;-7.18;100.00
14253;BME280;7210;51.502;10.722;2022-11-20T04:10:11;99193.03;;;-7.10;100.00
14253;BME280;7210;51.502;10.722;2022-11-20T04:12:52;99192.34;;;-7.12;100.00
14253;BME280;7210;51.502;10.722;2022-11-20T04:15:21;99190.72;;;-7.13;100.00
14253;BME280;7210;51.502;10.722;2022-11-20T04:17:58;99179.91;;;-7.16;100.00
14253;BME280;7210;51.502;10.722;2022-11-20T04:20:26;99173.03;;;-7.15;100.00
14253;BME280;7210;51.502;10.722;2022-11-20T04:22:53;99165.44;;;-7.17;100.00
14253;BME280;7210;51.502;10.722;2022-11-20T04:25:21;99170.19;;;-7.13;100.00
14253;BME280;7210;51.502;10.722;2022-11-20T04:28:04;99159.75;;;-7.20;100.00
14253;BME280;7210;51.502;10.722;2022-11-20T04:30:33;99145.13;;;-7.29;100.00
14253;BME280;7210;51.502;10.722;2022-11-20T04:33:04;99166.28;;;-7.16;100.00
14253;BME280;7210;51.502;10.722;2022-11-20T04:35:35;99163.31;;;-7.12;100.00
14253;BME280;7210;51.502;10.722;2022-11-20T04:38:22;99158.97;;;-7.12;100.00
14253;BME280;7210;51.502;10.722;2022-11-20T04:40:49;99158.31;;;-7.13;100.00
14253;BME280;7210;51.502;10.722;2022-11-20T04:43:16;99157.06;;;-7.19;100.00
14253;BME280;7210;51.502;10.722;2022-11-20T04:45:54;99132.78;;;-7.35;100.00
14253;BME280;7210;51.502;10.722;2022-11-20T04:48:40;99157.69;;;-7.26;100.00
14253;BME280;7210;51.502;10.722;2022-11-20T04:51:28;99155.88;;;-7.35;100.00
14253;BME280;7210;51.502;10.722;2022-11-20T04:53:56;99150.75;;;-7.35;100.00
14253;BME280;7210;51.502;10.722;2022-11-20T04:56:23;99140.03;;;-7.40;100.00
14253;BME280;7210;51.502;10.722;2022-11-20T04:59:00;99148.06;;;-7.34;100.00
14253;BME280;7210;51.502;10.722;2022-11-20T05:01:30;99149.91;;;-7.36;100.00
14253;BME280;7210;51.502;10.722;2022-11-20T05:04:22;99151.00;;;-7.38;100.00
14253;BME280;7210;51.502;10.722;2022-11-20T05:06:58;99148.56;;;-7.40;100.00
14253;BME280;7210;51.502;10.722;2022-11-20T05:09:26;99151.00;;;-7.38;100.00
14253;BME280;7210;51.502;10.722;2022-11-20T05:11:58;99157.75;;;-7.37;100.00
14253;BME280;7210;51.502;10.722;2022-11-20T05:14:58;99143.69;;;-7.43;100.00
14253;BME280;7210;51.502;10.722;2022-11-20T05:17:26;99157.50;;;-7.34;100.00
14253;BME280;7210;51.502;10.722;2022-11-20T05:20:11;99147.50;;;-7.37;100.00
14253;BME280;7210;51.502;10.722;2022-11-20T05:22:38;99137.72;;;-7.43;100.00
14253;BME280;7210;51.502;10.722;2022-11-20T05:25:06;99139.13;;;-7.39;100.00
14253;BME280;7210;51.502;10.722;2022-11-20T05:27:34;99139.34;;;-7.42;100.00
14253;BME280;7210;51.502;10.722;2022-11-20T05:30:06;99145.53;;;-7.45;100.00
14253;BME280;7210;51.502;10.722;2022-11-20T05:32:36;99138.22;;;-7.49;100.00
14253;BME280;7210;51.502;10.722;2022-11-20T05:35:05;99134.72;;;-7.48;100.00
14253;BME280;7210;51.502;10.722;2022-11-20T05:37:40;99132.41;;;-7.51;100.00
14253;BME280;7210;51.502;10.722;2022-11-20T05:40:12;99138.22;;;-7.49;100.00
14253;BME280;7210;51.502;10.722;2022-11-20T05:42:39;99138.47;;;-7.52;100.00
14253;BME280;7210;51.502;10.722;2022-11-20T05:45:40;99137.09;;;-7.56;100.00
14253;BME280;7210;51.502;10.722;2022-11-20T05:48:18;99133.84;;;-7.58;100.00
14253;BME280;7210;51.502;10.722;2022-11-20T05:50:45;99132.78;;;-7.56;100.00
14253;BME280;7210;51.502;10.722;2022-11-20T05:53:13;99117.59;;;-7.68;100.00
14253;BME280;7210;51.502;10.722;2022-11-20T05:56:10;99141.53;;;-7.58;100.00
14253;BME280;7210;51.502;10.722;2022-11-20T05:58:38;99128.72;;;-7.58;100.00
14253;BME280;7210;51.502;10.722;2022-11-20T06:01:10;99113.81;;;-7.64;100.00
14253;BME280;7210;51.502;10.722;2022-11-20T06:03:40;99121.13;;;-7.60;100.00
14253;BME280;7210;51.502;10.722;2022-11-20T06:06:46;99122.34;;;-7.64;100.00
14253;BME280;7210;51.502;10.722;2022-11-20T06:09:13;99120.03;;;-7.67;100.00
14253;BME280;7210;51.502;10.722;2022-11-20T06:11:40;99120.25;;;-7.70;100.00
14253;BME280;7210;51.502;10.722;2022-11-20T06:14:23;99127.84;;;-7.68;100.00
14253;BME280;7210;51.502;10.722;2022-11-20T06:16:59;99117.25;;;-7.75;100.00
14253;BME280;7210;51.502;10.722;2022-11-20T06:19:27;99126.22;;;-7.69;100.00
14253;BME280;7210;51.502;10.722;2022-11-20T06:22:22;99126.06;;;-7.68;100.00
14253;BME280;7210;51.502;10.722;2022-11-20T06:24:58;99123.88;;;-7.72;100.00
14253;BME280;7210;51.502;10.722;2022-11-20T06:27:35;99084.41;;;-8.01;100.00
14253;BME280;7210;51.502;10.722;2022-11-20T06:30:12;99140.66;;;-7.68;100.00
14253;BME280;7210;51.502;10.722;2022-11-20T06:32:39;99138.59;;;-7.74;100.00
14253;BME280;7210;51.502;10.722;2022-11-20T06:35:12;99139.97;;;-7.70;100.00
14253;BME280;7210;51.502;10.722;2022-11-20T06:37:39;99149.53;;;-7.72;100.00
14253;BME280;7210;51.502;10.722;2022-11-20T06:40:09;99148.59;;;-7.71;100.00
14253;BME280;7210;51.502;10.722;2022-11-20T06:42:58;99155.56;;;-7.62;100.00
14253;BME280;7210;51.502;10.722;2022-11-20T06:45:28;99148.97;;;-7.55;100.00
14253;BME280;7210;51.502;10.722;2022-11-20T06:47:57;99150.63;;;-7.54;100.00
14253;BME280;7210;51.502;10.722;2022-11-20T06:50:26;99138.41;;;-7.62;100.00
14253;BME280;7210;51.502;10.722;2022-11-20T06:52:53;99135.63;;;-7.59;100.00
14253;BME280;7210;51.502;10.722;2022-11-20T06:55:34;99134.66;;;-7.58;100.00
14253;BME280;7210;51.502;10.722;2022-11-20T06:58:02;99140.38;;;-7.54;100.00
14253;BME280;7210;51.502;10.722;2022-11-20T07:01:10;99134.28;;;-7.53;100.00
14253;BME280;7210;51.502;10.722;2022-11-20T07:04:04;99128.22;;;-7.52;100.00
14253;BME280;7210;51.502;10.722;2022-11-20T07:06:48;99141.69;;;-7.39;100.00
14253;BME280;7210;51.502;10.722;2022-11-20T07:09:16;99138.03;;;-7.37;100.00
14253;BME280;7210;51.502;10.722;2022-11-20T07:11:58;99132.59;;;-7.43;100.00
14253;BME280;7210;51.502;10.722;2022-11-20T07:14:34;99145.34;;;-7.32;100.00
14253;BME280;7210;51.502;10.722;2022-11-20T07:17:02;99125.56;;;-7.41;100.00
14253;BME280;7210;51.502;10.722;2022-11-20T07:19:52;99137.16;;;-7.26;100.00
14253;BME280;7210;51.502;10.722;2022-11-20T07:22:55;99135.97;;;-7.22;100.00
14253;BME280;7210;51.502;10.722;2022-11-20T07:25:23;99130.84;;;-7.22;100.00
14253;BME280;7210;51.502;10.722;2022-11-20T07:27:50;99126.13;;;-7.18;100.00
14253;BME280;7210;51.502;10.722;2022-11-20T07:30:18;99132.91;;;-7.16;100.00
14253;BME280;7210;51.502;10.722;2022-11-20T07:32:50;99120.31;;;-7.19;100.00
14253;BME280;7210;51.502;10.722;2022-11-20T07:35:23;99131.41;;;-7.10;100.00
14253;BME280;7210;51.502;10.722;2022-11-20T07:38:11;99109.97;;;-7.08;100.00
14253;BME280;7210;51.502;10.722;2022-11-20T07:40:39;99121.75;;;-6.97;100.00
14253;BME280;7210;51.502;10.722;2022-11-20T07:43:06;99123.56;;;-6.88;100.00
14253;BME280;7210;51.502;10.722;2022-11-20T07:45:33;99120.75;;;-6.85;100.00
14253;BME280;7210;51.502;10.722;2022-11-20T07:48:10;99125.91;;;-6.75;100.00
14253;BME280;7210;51.502;10.722;2022-11-20T07:50:46;99133.47;;;-6.74;100.00
14253;BME280;7210;51.502;10.722;2022-11-20T07:53:24;99127.28;;;-6.71;100.00
14253;BME280;7210;51.502;10.722;2022-11-20T07:56:46;99130.00;;;-6.63;100.00
14253;BME280;7210;51.502;10.722;2022-11-20T07:59:13;99121.47;;;-6.64;100.00
14253;BME280;7210;51.502;10.722;2022-11-20T08:01:41;99133.84;;;-6.48;100.00
14253;BME280;7210;51.502;10.722;2022-11-20T08:04:10;99128.03;;;-6.41;100.00
14253;BME280;7210;51.502;10.722;2022-11-20T08:06:58;99128.44;;;-6.36;100.00
14253;BME280;7210;51.502;10.722;2022-11-20T08:09:30;99128.19;;;-6.23;100.00
14253;BME280;7210;51.502;10.722;2022-11-20T08:11:58;99130.38;;;-6.19;100.00
14253;BME280;7210;51.502;10.722;2022-11-20T08:14:52;99133.91;;;-6.10;100.00
14253;BME280;7210;51.502;10.722;2022-11-20T08:17:21;99136.63;;;-6.02;100.00
14253;BME280;7210;51.502;10.722;2022-11-20T08:19:52;99134.19;;;-5.94;100.00
14253;BME280;7210;51.502;10.722;2022-11-20T08:22:22;99140.97;;;-5.84;100.00
14253;BME280;7210;51.502;10.722;2022-11-20T08:25:11;99145.72;;;-5.79;100.00
14253;BME280;7210;51.502;10.722;2022-11-20T08:27:40;99151.91;;;-5.72;100.00
14253;BME280;7210;51.502;10.722;2022-11-20T08:30:10;99158.94;;;-5.65;100.00
14253;BME280;7210;51.502;10.722;2022-11-20T08:32:37;99163.25;;;-5.56;100.00
14253;BME280;7210;51.502;10.722;2022-11-20T08:35:05;99163.00;;;-5.53;100.00
14253;BME280;7210;51.502;10.722;2022-11-20T08:37:33;99175.31;;;-5.47;100.00
14253;BME280;7210;51.502;10.722;2022-11-20T08:40:00;99173.16;;;-5.42;100.00
14253;BME280;7210;51.502;10.722;2022-11-20T08:42:29;99184.66;;;-5.27;100.00
14253;BME280;7210;51.502;10.722;2022-11-20T08:44:56;99180.69;;;-5.12;100.00
14253;BME280;7210;51.502;10.722;2022-11-20T08:47:23;99182.72;;;-5.06;100.00
14253;BME280;7210;51.502;10.722;2022-11-20T08:49:52;99182.84;;;-4.98;100.00
14253;BME280;7210;51.502;10.722;2022-11-20T08:52:52;99167.38;;;-4.98;100.00
14253;BME280;7210;51.502;10.722;2022-11-20T08:55:22;99174.94;;;-4.87;100.00
14253;BME280;7210;51.502;10.722;2022-11-20T08:57:51;99179.53;;;-4.81;100.00
14253;BME280;7210;51.502;10.722;2022-11-20T09:00:23;99181.69;;;-4.76;100.00
14253;BME280;7210;51.502;10.722;2022-11-20T09:05:46;99192.41;;;-4.44;100.00
14253;BME280;7210;51.502;10.722;2022-11-20T09:08:14;99192.50;;;-4.36;100.00
14253;BME280;7210;51.502;10.722;2022-11-20T09:10:41;99188.94;;;-4.26;100.00
14253;BME280;7210;51.502;10.722;2022-11-20T09:13:12;99190.66;;;-4.17;100.00
14253;BME280;7210;51.502;10.722;2022-11-20T09:15:46;99179.63;;;-4.09;100.00
14253;BME280;7210;51.502;10.722;2022-11-20T09:18:14;99179.53;;;-4.00;100.00
14253;BME280;7210;51.502;10.722;2022-11-20T09:20:46;99178.25;;;-3.86;100.00
14253;BME280;7210;51.502;10.722;2022-11-20T09:23:22;99171.69;;;-3.81;100.00
14253;BME280;7210;51.502;10.722;2022-11-20T09:25:52;99168.53;;;-3.75;100.00
14253;BME280;7210;51.502;10.722;2022-11-20T09:28:23;99164.47;;;-3.60;100.00
14253;BME280;7210;51.502;10.722;2022-11-20T09:30:50;99162.75;;;-3.52;100.00
14253;BME280;7210;51.502;10.722;2022-11-20T09:33:18;99162.69;;;-3.42;100.00
14253;BME280;7210;51.502;10.722;2022-11-20T09:35:46;99170.16;;;-3.31;100.00
14253;BME280;7210;51.502;10.722;2022-11-20T09:38:14;99160.88;;;-3.24;100.00
14253;BME280;7210;51.502;10.722;2022-11-20T09:40:50;99154.50;;;-3.12;100.00
14253;BME280;7210;51.502;10.722;2022-11-20T09:43:33;99147.41;;;-3.10;100.00
14253;BME280;7210;51.502;10.722;2022-11-20T09:46:13;99141.91;;;-3.07;100.00
14253;BME280;7210;51.502;10.722;2022-11-20T09:49:02;99136.19;;;-2.93;100.00
14253;BME280;7210;51.502;10.722;2022-11-20T09:51:44;99136.88;;;-2.83;100.00
14253;BME280;7210;51.502;10.722;2022-11-20T09:54:19;99127.88;;;-2.79;100.00
14253;BME280;7210;51.502;10.722;2022-11-20T09:56:51;99119.78;;;-2.76;100.00
14253;BME280;7210;51.502;10.722;2022-11-20T09:59:36;99123.25;;;-2.68;100.00
14253;BME280;7210;51.502;10.722;2022-11-20T10:02:19;99116.00;;;-2.56;100.00
14253;BME280;7210;51.502;10.722;2022-11-20T10:04:57;99115.91;;;-2.47;100.00
14253;BME280;7210;51.502;10.722;2022-11-20T10:07:36;99118.50;;;-2.39;100.00
14253;BME280;7210;51.502;10.722;2022-11-20T10:10:16;99106.75;;;-2.25;100.00
14253;BME280;7210;51.502;10.722;2022-11-20T10:13:06;99104.19;;;-2.09;100.00
14253;BME280;7210;51.502;10.722;2022-11-20T10:15:55;99094.31;;;-2.06;100.00
14253;BME280;7210;51.502;10.722;2022-11-20T10:18:44;99097.56;;;-1.88;100.00
14253;BME280;7210;51.502;10.722;2022-11-20T10:21:48;99099.88;;;-1.77;100.00
14253;BME280;7210;51.502;10.722;2022-11-20T10:24:44;99098.41;;;-1.71;100.00
14253;BME280;7210;51.502;10.722;2022-11-20T10:27:45;99100.66;;;-1.60;100.00
14253;BME280;7210;51.502;10.722;2022-11-20T10:30:23;99093.06;;;-1.54;100.00
14253;BME280;7210;51.502;10.722;2022-11-20T10:32:59;99082.69;;;-1.46;100.00
14253;BME280;7210;51.502;10.722;2022-11-20T10:35:40;99095.94;;;-1.33;100.00
14253;BME280;7210;51.502;10.722;2022-11-20T10:38:37;99078.97;;;-1.35;100.00
14253;BME280;7210;51.502;10.722;2022-11-20T10:41:11;99086.03;;;-1.21;100.00
14253;BME280;7210;51.502;10.722;2022-11-20T10:44:02;99084.25;;;-1.13;100.00
14253;BME280;7210;51.502;10.722;2022-11-20T10:46:43;99080.22;;;-1.15;100.00
14253;BME280;7210;51.502;10.722;2022-11-20T10:49:24;99077.59;;;-1.07;100.00
14253;BME280;7210;51.502;10.722;2022-11-20T10:52:05;99074.69;;;-1.04;100.00
14253;BME280;7210;51.502;10.722;2022-11-20T10:54:49;99068.53;;;-1.03;100.00
14253;BME280;7210;51.502;10.722;2022-11-20T10:57:50;99075.16;;;-0.93;100.00
14253;BME280;7210;51.502;10.722;2022-11-20T11:00:22;99065.56;;;-0.92;100.00
14253;BME280;7210;51.502;10.722;2022-11-20T11:02:52;99070.41;;;-0.89;100.00
14253;BME280;7210;51.502;10.722;2022-11-20T11:05:35;99068.44;;;-0.79;100.00
14253;BME280;7210;51.502;10.722;2022-11-20T11:08:19;99067.47;;;-0.78;100.00
14253;BME280;7210;51.502;10.722;2022-11-20T11:10:51;99068.06;;;-0.68;100.00
14253;BME280;7210;51.502;10.722;2022-11-20T11:13:25;99060.44;;;-0.70;100.00
14253;BME280;7210;51.502;10.722;2022-11-20T11:15:58;99057.38;;;-0.65;100.00
14253;BME280;7210;51.502;10.722;2022-11-20T11:18:31;99047.03;;;-0.73;100.00
14253;BME280;7210;51.502;10.722;2022-11-20T11:21:08;99038.41;;;-0.74;100.00
14253;BME280;7210;51.502;10.722;2022-11-20T11:24:19;99040.38;;;-0.76;100.00
14253;BME280;7210;51.502;10.722;2022-11-20T11:27:28;99041.66;;;-0.72;100.00
14253;BME280;7210;51.502;10.722;2022-11-20T11:30:29;99035.47;;;-0.71;100.00
14253;BME280;7210;51.502;10.722;2022-11-20T11:33:18;99039.84;;;-0.63;99.96
14253;BME280;7210;51.502;10.722;2022-11-20T11:35:48;99042.03;;;-0.52;100.00
14253;BME280;7210;51.502;10.722;2022-11-20T11:38:32;99051.41;;;-0.43;100.00
14253;BME280;7210;51.502;10.722;2022-11-20T11:41:02;99049.09;;;-0.38;100.00
14253;BME280;7210;51.502;10.722;2022-11-20T11:43:34;99028.69;;;-0.41;99.85
14253;BME280;7210;51.502;10.722;2022-11-20T11:46:31;99028.34;;;-0.38;99.42
14253;BME280;7210;51.502;10.722;2022-11-20T11:49:01;99022.16;;;-0.37;99.60
14253;BME280;7210;51.502;10.722;2022-11-20T11:51:38;99025.56;;;-0.37;99.06
14253;BME280;7210;51.502;10.722;2022-11-20T11:54:20;99021.78;;;-0.26;98.89
14253;BME280;7210;51.502;10.722;2022-11-20T11:56:53;99018.53;;;-0.28;98.65
14253;BME280;7210;51.502;10.722;2022-11-20T11:59:32;99008.84;;;-0.34;98.49
14253;BME280;7210;51.502;10.722;2022-11-20T12:02:25;99002.38;;;-0.38;98.13
14253;BME280;7210;51.502;10.722;2022-11-20T12:05:00;98991.06;;;-0.45;97.22
14253;BME280;7210;51.502;10.722;2022-11-20T12:07:40;98999.47;;;-0.43;97.54
14253;BME280;7210;51.502;10.722;2022-11-20T12:10:20;98998.34;;;-0.41;97.42
14253;BME280;7210;51.502;10.722;2022-11-20T12:12:54;99003.53;;;-0.41;96.75
14253;BME280;7210;51.502;10.722;2022-11-20T12:15:32;99007.22;;;-0.35;97.23
14253;BME280;7210;51.502;10.722;2022-11-20T12:18:01;99008.50;;;-0.31;96.54
14253;BME280;7210;51.502;10.722;2022-11-20T12:20:39;99006.66;;;-0.23;97.13
14253;BME280;7210;51.502;10.722;2022-11-20T12:23:17;98995.94;;;-0.20;96.60
14253;BME280;7210;51.502;10.722;2022-11-20T12:25:57;99007.69;;;-0.09;96.44
14253;BME280;7210;51.502;10.722;2022-11-20T12:28:49;99006.81;;;-0.02;96.09
14253;BME280;7210;51.502;10.722;2022-11-20T12:31:52;98992.31;;;0.03;95.51
14253;BME280;7210;51.502;10.722;2022-11-20T12:34:50;98973.34;;;0.03;95.65
14253;BME280;7210;51.502;10.722;2022-11-20T12:37:35;98971.38;;;0.05;95.13
14253;BME280;7210;51.502;10.722;2022-11-20T12:40:27;98979.25;;;0.11;94.95
14253;BME280;7210;51.502;10.722;2022-11-20T12:43:12;98969.53;;;0.13;94.43
14253;BME280;7210;51.502;10.722;2022-11-20T12:46:22;98967.38;;;0.17;94.42
14253;BME280;7210;51.502;10.722;2022-11-20T12:49:11;98972.66;;;0.23;94.24
14253;BME280;7210;51.502;10.722;2022-11-20T12:52:05;98975.56;;;0.28;94.16
14253;BME280;7210;51.502;10.722;2022-11-20T12:55:11;98978.09;;;0.36;93.97
14253;BME280;7210;51.502;10.722;2022-11-20T12:57:50;98965.41;;;0.33;93.65
14253;BME280;7210;51.502;10.722;2022-11-20T13:00:23;98956.72;;;0.26;93.07
14253;BME280;7210;51.502;10.722;2022-11-20T13:03:39;98957.00;;;0.31;92.65
14253;BME280;7210;51.502;10.722;2022-11-20T13:06:17;98948.84;;;0.34;92.94
14253;BME280;7210;51.502;10.722;2022-11-20T13:08:53;98949.28;;;0.38;92.91
14253;BME280;7210;51.502;10.722;2022-11-20T13:11:30;98943.31;;;0.37;92.69
14253;BME280;7210;51.502;10.722;2022-11-20T13:14:12;98941.16;;;0.41;92.24
14253;BME280;7210;51.502;10.722;2022-11-20T13:16:59;98946.34;;;0.41;92.66
14253;BME280;7210;51.502;10.722;2022-11-20T13:19:29;98936.13;;;0.39;92.54
14253;BME280;7210;51.502;10.722;2022-11-20T13:21:58;98939.34;;;0.41;93.10
14253;BME280;7210;51.502;10.722;2022-11-20T13:24:29;98948.69;;;0.50;93.48
14253;BME280;7210;51.502;10.722;2022-11-20T13:27:03;98940.34;;;0.55;92.60
14253;BME280;7210;51.502;10.722;2022-11-20T13:29:36;98934.06;;;0.49;92.95
14253;BME280;7210;51.502;10.722;2022-11-20T13:32:24;98952.72;;;0.53;93.03
14253;BME280;7210;51.502;10.722;2022-11-20T13:34:53;98945.09;;;0.51;93.70
14253;BME280;7210;51.502;10.722;2022-11-20T13:37:30;98956.13;;;0.53;93.80
14253;BME280;7210;51.502;10.722;2022-11-20T13:40:20;98955.84;;;0.48;93.73
14253;BME280;7210;51.502;10.722;2022-11-20T13:43:01;98970.38;;;0.57;93.33
14253;BME280;7210;51.502;10.722;2022-11-20T13:45:31;98978.81;;;0.59;93.09
14253;BME280;7210;51.502;10.722;2022-11-20T13:48:04;98977.28;;;0.65;92.68